createdAt,value
2022-09-15T00:04:00.524Z,18.10
2022-09-15T00:08:09.828Z,18.00
2022-09-15T00:12:20.646Z,18.00
2022-09-15T00:16:32.109Z,18.00
2022-09-15T00:20:43.849Z,17.90
2022-09-15T00:24:53.185Z,18.00
2022-09-15T00:29:04.745Z,18.00
2022-09-15T00:33:15.002Z,18.00
2022-09-15T00:37:24.364Z,18.00
2022-09-15T00:41:34.165Z,17.90
2022-09-15T00:45:45.444Z,17.80
2022-09-15T00:50:10.442Z,17.80
2022-09-15T00:54:30.945Z,17.80
2022-09-15T00:58:50.605Z,17.70
2022-09-15T01:03:02.435Z,17.70
2022-09-15T01:07:18.565Z,17.50
2022-09-15T01:11:29.485Z,17.50
2022-09-15T01:15:49.249Z,17.50
2022-09-15T01:20:41.319Z,17.40
2022-09-15T01:25:06.497Z,17.40
2022-09-15T01:35:06.537Z,17.40
2022-09-15T01:39:39.158Z,17.40
2022-09-15T01:48:53.902Z,17.40
2022-09-15T01:53:25.586Z,17.30
2022-09-15T01:57:50.145Z,17.30
2022-09-15T02:02:10.522Z,17.20
2022-09-15T02:06:26.525Z,17.10
2022-09-15T02:10:45.785Z,17.00
2022-09-15T02:15:03.944Z,16.90
2022-09-15T02:19:22.241Z,16.80
2022-09-15T02:28:18.665Z,16.80
2022-09-15T02:32:31.824Z,16.70
2022-09-15T02:36:57.865Z,16.60
2022-09-15T02:51:35.005Z,16.40
2022-09-15T02:55:55.185Z,16.40
2022-09-15T03:00:21.802Z,16.30
2022-09-15T03:04:33.344Z,16.40
2022-09-15T03:27:06.825Z,16.20
2022-09-15T04:32:57.770Z,15.20
2022-09-15T05:05:35.225Z,14.80
2022-09-15T05:09:58.849Z,14.70
2022-09-15T05:14:10.204Z,14.70
2022-09-15T05:32:06.406Z,14.60
2022-09-15T05:41:08.625Z,14.70
2022-09-15T05:45:52.948Z,14.80
2022-09-15T05:50:31.566Z,14.80
2022-09-15T05:54:41.005Z,14.80
2022-09-15T06:03:38.447Z,14.90
2022-09-15T06:17:39.986Z,15.10
2022-09-15T06:50:11.505Z,15.20
2022-09-15T06:54:20.709Z,15.20
2022-09-15T06:58:29.824Z,15.20
2022-09-15T07:02:39.287Z,15.20
2022-09-15T07:06:50.704Z,15.30
2022-09-15T07:11:00.545Z,15.30
2022-09-15T07:15:11.049Z,15.40
2022-09-15T07:19:19.946Z,15.50
2022-09-15T07:23:31.866Z,15.50
2022-09-15T07:27:40.826Z,15.50
2022-09-15T07:31:50.227Z,15.50
2022-09-15T07:36:00.024Z,15.50
2022-09-15T07:40:12.424Z,15.50
2022-09-15T07:44:21.606Z,15.60
2022-09-15T07:48:30.944Z,15.70
2022-09-15T07:52:40.023Z,15.80
2022-09-15T07:56:50.546Z,15.90
2022-09-15T08:01:04.265Z,15.90
2022-09-15T08:05:13.546Z,16.00
2022-09-15T08:09:22.944Z,16.00
2022-09-15T08:13:33.485Z,16.10
2022-09-15T08:17:42.504Z,16.30
2022-09-15T08:21:51.647Z,16.50
2022-09-15T08:26:00.771Z,16.70
2022-09-15T08:30:12.603Z,16.80
2022-09-15T08:34:21.925Z,17.10
2022-09-15T08:38:31.145Z,17.20
2022-09-15T08:42:44.909Z,17.40
2022-09-15T08:47:02.343Z,17.60
2022-09-15T08:51:21.063Z,17.80
2022-09-15T08:55:39.083Z,17.90
2022-09-15T08:59:48.243Z,18.00
2022-09-15T09:04:20.765Z,18.30
2022-09-15T09:08:56.486Z,18.50
2022-09-15T09:13:19.106Z,18.60
2022-09-15T09:17:52.644Z,18.50
2022-09-15T09:22:33.503Z,18.30
2022-09-15T09:26:42.627Z,18.20
2022-09-15T09:30:51.913Z,18.30
2022-09-15T09:35:07.111Z,18.50
2022-09-15T09:39:17.664Z,18.60
2022-09-15T09:43:28.251Z,18.60
2022-09-15T09:47:40.843Z,18.90
2022-09-15T09:51:54.125Z,19.10
2022-09-15T09:56:25.685Z,19.10
2022-09-15T10:00:36.485Z,19.40
2022-09-15T10:04:47.174Z,19.60
2022-09-15T10:08:58.748Z,19.70
2022-09-15T10:13:13.666Z,19.60
2022-09-15T10:17:25.252Z,19.60
2022-09-15T10:21:34.506Z,19.80
2022-09-15T10:25:58.742Z,19.80
2022-09-15T10:30:21.206Z,19.90
2022-09-15T10:34:34.687Z,19.80
2022-09-15T10:38:54.789Z,19.90
2022-09-15T10:43:17.804Z,20.00
2022-09-15T10:47:40.805Z,20.10
2022-09-15T10:52:02.510Z,20.10
2022-09-15T10:56:20.765Z,20.30
2022-09-15T11:00:37.876Z,20.30
2022-09-15T11:05:11.965Z,20.30
2022-09-15T11:09:23.825Z,20.10
2022-09-15T11:13:47.027Z,20.20
2022-09-15T11:18:14.227Z,20.40
2022-09-15T11:22:29.385Z,20.40
2022-09-15T11:26:43.945Z,20.60
2022-09-15T11:30:58.839Z,20.80
2022-09-15T11:35:44.645Z,20.70
2022-09-15T11:40:02.277Z,20.80
2022-09-15T11:44:25.946Z,21.10
2022-09-15T11:48:46.848Z,21.10
2022-09-15T11:53:00.588Z,21.20
2022-09-15T11:57:19.407Z,21.40
2022-09-15T12:01:34.361Z,21.60
2022-09-15T12:05:48.885Z,21.40
2022-09-15T12:10:05.826Z,21.50
2022-09-15T12:14:19.449Z,21.60
2022-09-15T12:18:39.942Z,21.80
2022-09-15T12:22:57.388Z,21.80
2022-09-15T12:27:06.746Z,21.80
2022-09-15T12:31:29.370Z,22.00
2022-09-15T12:35:38.625Z,22.20
2022-09-15T12:39:48.925Z,22.40
2022-09-15T12:44:00.936Z,22.30
2022-09-15T12:48:21.028Z,22.20
2022-09-15T12:52:30.907Z,22.10
2022-09-15T12:56:40.007Z,22.00
2022-09-15T13:01:16.614Z,22.00
2022-09-15T13:06:13.548Z,22.10
2022-09-15T13:10:39.847Z,22.40
2022-09-15T13:14:50.767Z,22.60
2022-09-15T13:19:18.194Z,22.70
2022-09-15T13:24:04.226Z,23.00
2022-09-15T13:32:45.306Z,23.30
2022-09-15T13:41:58.685Z,22.80
2022-09-15T13:46:19.650Z,23.00
2022-09-15T13:51:04.410Z,23.10
2022-09-15T13:55:26.565Z,23.10
2022-09-15T13:59:36.447Z,22.80
2022-09-15T14:03:51.085Z,22.80
2022-09-15T14:08:03.147Z,23.10
2022-09-15T14:12:15.409Z,23.20
2022-09-15T14:16:36.110Z,23.00
2022-09-15T14:20:58.664Z,23.20
2022-09-15T14:25:10.608Z,23.60
2022-09-15T14:29:22.390Z,23.30
2022-09-15T14:33:38.092Z,22.90
2022-09-15T14:37:52.673Z,23.10
2022-09-15T14:42:12.667Z,22.90
2022-09-15T14:46:21.687Z,22.90
2022-09-15T14:50:33.630Z,23.10
2022-09-15T14:54:44.485Z,23.20
2022-09-15T14:58:59.627Z,23.40
2022-09-15T15:03:27.908Z,23.30
2022-09-15T15:07:40.267Z,23.20
2022-09-15T15:11:54.827Z,23.20
2022-09-15T15:16:08.646Z,23.20
2022-09-15T15:20:21.241Z,23.20
2022-09-15T15:24:30.368Z,23.10
2022-09-15T15:28:40.986Z,23.10
2022-09-15T15:32:50.068Z,23.10
2022-09-15T15:37:04.629Z,22.80
2022-09-15T15:41:21.711Z,22.80
2022-09-15T15:45:34.791Z,22.70
2022-09-15T15:50:11.739Z,22.70
2022-09-15T15:54:15.907Z,22.40
2022-09-15T15:58:25.307Z,22.30
2022-09-15T16:02:35.968Z,22.20
2022-09-15T16:06:46.206Z,22.10
2022-09-15T16:10:56.865Z,22.10
2022-09-15T16:15:13.628Z,21.90
2022-09-15T16:19:24.147Z,21.70
2022-09-15T16:23:34.606Z,21.50
2022-09-15T16:27:43.845Z,21.50
2022-09-15T16:31:53.322Z,21.30
2022-09-15T16:36:07.312Z,21.20
2022-09-15T16:40:18.209Z,21.00
2022-09-15T16:44:27.575Z,20.90
2022-09-15T16:48:36.668Z,20.70
2022-09-15T16:52:48.626Z,20.50
2022-09-15T16:56:57.946Z,20.30
2022-09-15T17:01:07.858Z,20.10
2022-09-15T17:05:25.286Z,19.90
2022-09-15T17:09:47.289Z,19.80
2022-09-15T17:13:56.786Z,19.70
2022-09-15T17:18:07.113Z,19.50
2022-09-15T17:22:47.028Z,19.40
2022-09-15T17:26:57.907Z,19.20
2022-09-15T17:31:13.612Z,19.10
2022-09-15T17:35:24.985Z,18.90
2022-09-15T17:39:35.725Z,18.70
2022-09-15T17:43:46.602Z,18.60
2022-09-15T17:47:56.205Z,18.50
2022-09-15T17:52:05.429Z,18.30
2022-09-15T17:56:14.585Z,18.10
2022-09-15T18:00:26.527Z,17.90
2022-09-15T18:04:35.528Z,17.80
2022-09-15T18:08:44.530Z,17.70
2022-09-15T18:12:55.615Z,17.50
2022-09-15T18:17:06.527Z,17.40
2022-09-15T18:21:25.485Z,17.20
2022-09-15T18:25:36.866Z,17.10
2022-09-15T18:29:45.908Z,17.00
2022-09-15T18:33:56.369Z,16.80
2022-09-15T18:38:05.405Z,16.70
2022-09-15T18:42:14.427Z,16.70
2022-09-15T18:46:23.583Z,16.50
2022-09-15T18:50:34.191Z,16.40
2022-09-15T18:54:43.385Z,16.30
2022-09-15T18:58:54.949Z,16.20
2022-09-15T19:03:05.607Z,16.10
2022-09-15T19:07:16.205Z,16.00
2022-09-15T19:11:25.286Z,16.00
2022-09-15T19:15:35.527Z,15.90
2022-09-15T19:19:46.687Z,15.80
2022-09-15T19:23:59.906Z,15.80
2022-09-15T19:28:08.807Z,15.70
2022-09-15T19:32:19.407Z,15.70
2022-09-15T19:36:29.211Z,15.60
2022-09-15T19:40:40.047Z,15.60
2022-09-15T19:44:49.763Z,15.50
2022-09-15T19:48:59.608Z,15.40
2022-09-15T19:53:10.174Z,15.40
2022-09-15T19:57:22.947Z,15.40
2022-09-15T20:01:33.272Z,15.30
2022-09-15T20:05:42.401Z,15.30
2022-09-15T20:09:54.859Z,15.20
2022-09-15T20:14:08.018Z,15.20
2022-09-15T20:18:17.499Z,15.10
2022-09-15T20:22:26.520Z,15.20
2022-09-15T20:26:37.045Z,15.10
2022-09-15T20:30:47.676Z,15.10
2022-09-15T20:34:56.959Z,15.10
2022-09-15T20:39:09.065Z,15.00
2022-09-15T20:43:18.207Z,15.00
2022-09-15T20:47:29.167Z,15.00
2022-09-15T20:51:38.247Z,14.90
2022-09-15T20:55:53.647Z,14.90
2022-09-15T21:00:05.110Z,14.90
2022-09-15T21:04:15.908Z,14.80
2022-09-15T21:08:25.046Z,14.70
2022-09-15T21:12:34.187Z,14.70
2022-09-15T21:16:44.177Z,14.60
2022-09-15T21:20:59.245Z,14.50
2022-09-15T21:25:09.026Z,14.50
2022-09-15T21:29:18.128Z,14.40
2022-09-15T21:33:28.286Z,14.40
2022-09-15T21:37:39.646Z,14.30
2022-09-15T21:41:48.787Z,14.30
2022-09-15T21:45:58.081Z,14.20
2022-09-15T21:50:08.665Z,14.20
2022-09-15T21:54:19.367Z,14.10
2022-09-15T21:58:32.387Z,14.10
2022-09-15T22:02:41.513Z,14.00
2022-09-15T22:06:51.128Z,13.90
2022-09-15T22:11:02.788Z,13.90
2022-09-15T22:15:12.587Z,13.90
2022-09-15T22:19:21.887Z,13.90
2022-09-15T22:23:30.946Z,13.90
2022-09-15T22:27:41.608Z,13.90
2022-09-15T22:31:50.741Z,13.80
2022-09-15T22:36:00.427Z,13.70
2022-09-15T22:40:10.637Z,13.60
2022-09-15T22:44:22.087Z,13.50
2022-09-15T22:48:31.386Z,13.50
2022-09-15T22:52:40.528Z,13.50
2022-09-15T22:56:49.546Z,13.40
2022-09-15T23:01:06.572Z,13.40
2022-09-15T23:05:15.807Z,13.30
2022-09-15T23:09:24.798Z,13.30
2022-09-15T23:13:35.047Z,13.20
2022-09-15T23:17:45.629Z,13.20
2022-09-15T23:21:54.787Z,13.10
2022-09-15T23:26:04.468Z,13.10
2022-09-15T23:30:14.825Z,13.10
2022-09-15T23:34:25.589Z,13.00
2022-09-15T23:38:37.849Z,13.10
2022-09-15T23:42:46.831Z,13.10
2022-09-15T23:46:55.996Z,13.10
2022-09-15T23:51:06.913Z,13.10
2022-09-15T23:55:16.227Z,13.00
2022-09-15T23:59:25.369Z,13.00
